createdAt,value
2018-11-29T00:01:13.035Z,90.35
2018-11-29T00:05:21.931Z,90.25
2018-11-29T00:09:39.725Z,90.55
2018-11-29T00:13:47.413Z,89.93
2018-11-29T00:17:55.118Z,90.02
2018-11-29T00:22:02.824Z,90.35
2018-11-29T00:26:10.603Z,89.80
2018-11-29T00:30:27.447Z,89.82
2018-11-29T00:34:37.751Z,89.52
2018-11-29T00:38:45.483Z,89.63
2018-11-29T00:42:53.244Z,89.45
2018-11-29T00:47:01.020Z,89.69
2018-11-29T00:51:09.050Z,89.72
2018-11-29T00:55:21.858Z,89.48
2018-11-29T00:59:30.441Z,89.48
2018-11-29T01:03:39.011Z,89.15
2018-11-29T01:07:47.312Z,89.54
2018-11-29T01:11:55.850Z,88.78
2018-11-29T01:16:03.718Z,88.87
2018-11-29T01:20:19.026Z,88.78
2018-11-29T01:24:27.478Z,89.05
2018-11-29T01:28:35.388Z,89.13
2018-11-29T01:32:43.496Z,88.99
2018-11-29T01:36:51.357Z,89.14
2018-11-29T01:40:59.083Z,89.48
2018-11-29T01:45:07.111Z,89.50
2018-11-29T01:49:15.001Z,89.38
2018-11-29T01:53:22.908Z,89.23
2018-11-29T01:57:30.684Z,89.34
2018-11-29T02:01:38.432Z,89.10
2018-11-29T02:05:46.048Z,88.91
2018-11-29T02:10:13.091Z,89.04
2018-11-29T02:14:20.930Z,88.72
2018-11-29T02:18:28.590Z,88.68
2018-11-29T02:22:36.278Z,88.53
2018-11-29T02:26:43.906Z,88.48
2018-11-29T02:30:51.499Z,88.49
2018-11-29T02:35:01.617Z,88.61
2018-11-29T02:39:10.958Z,88.51
2018-11-29T02:43:18.627Z,88.41
2018-11-29T02:47:27.232Z,88.18
2018-11-29T02:51:34.945Z,88.02
2018-11-29T02:55:42.680Z,88.23
2018-11-29T02:59:50.359Z,88.14
2018-11-29T03:03:58.418Z,88.37
2018-11-29T03:08:06.432Z,88.13
2018-11-29T03:12:14.127Z,88.23
2018-11-29T03:16:21.924Z,88.13
2018-11-29T03:20:29.993Z,87.78
2018-11-29T03:24:37.797Z,87.90
2018-11-29T03:28:45.671Z,87.71
2018-11-29T03:32:54.325Z,88.00
2018-11-29T03:37:01.852Z,88.34
2018-11-29T03:41:10.081Z,87.85
2018-11-29T03:45:18.534Z,87.65
2018-11-29T03:49:26.571Z,87.73
2018-11-29T03:53:34.379Z,87.75
2018-11-29T03:57:43.159Z,87.46
2018-11-29T04:01:57.637Z,87.24
2018-11-29T04:06:07.303Z,87.29
2018-11-29T04:10:17.039Z,86.90
2018-11-29T04:14:25.440Z,86.91
2018-11-29T04:18:33.083Z,86.61
2018-11-29T04:22:40.674Z,86.58
2018-11-29T04:26:48.143Z,86.58
2018-11-29T04:30:55.912Z,86.49
2018-11-29T04:35:03.699Z,86.53
2018-11-29T04:39:11.293Z,86.42
2018-11-29T04:43:19.231Z,86.01
2018-11-29T04:47:32.714Z,86.10
2018-11-29T04:51:43.465Z,86.14
2018-11-29T04:55:51.049Z,85.93
2018-11-29T04:59:58.760Z,86.14
2018-11-29T05:04:06.959Z,86.44
2018-11-29T05:08:14.864Z,85.82
2018-11-29T05:12:22.662Z,85.63
2018-11-29T05:16:30.631Z,85.72
2018-11-29T05:20:38.299Z,85.75
2018-11-29T05:24:46.164Z,85.75
2018-11-29T05:28:54.363Z,85.66
2018-11-29T05:33:02.205Z,85.91
2018-11-29T05:37:10.229Z,85.47
2018-11-29T05:41:18.056Z,85.53
2018-11-29T05:45:26.430Z,85.53
2018-11-29T05:49:34.444Z,85.32
2018-11-29T05:53:42.319Z,86.03
2018-11-29T05:57:49.832Z,85.47
2018-11-29T06:01:58.123Z,85.26
2018-11-29T06:06:05.756Z,85.18
2018-11-29T06:10:14.250Z,85.64
2018-11-29T06:14:22.744Z,85.13
2018-11-29T06:18:30.833Z,85.25
2018-11-29T06:22:39.606Z,84.85
2018-11-29T06:26:47.287Z,84.71
2018-11-29T06:30:55.929Z,85.04
2018-11-29T06:35:06.149Z,84.96
2018-11-29T06:39:14.069Z,84.99
2018-11-29T06:43:22.005Z,85.08
2018-11-29T06:47:30.207Z,84.84
2018-11-29T06:51:38.126Z,84.99
2018-11-29T06:55:46.665Z,85.53
2018-11-29T06:59:54.820Z,84.87
2018-11-29T07:04:03.708Z,85.16
2018-11-29T07:08:11.698Z,85.35
2018-11-29T07:12:20.099Z,84.93
2018-11-29T07:16:27.708Z,84.94
2018-11-29T07:20:36.094Z,85.05
2018-11-29T07:24:43.778Z,85.51
2018-11-29T07:28:51.682Z,84.96
2018-11-29T07:32:59.659Z,85.00
2018-11-29T07:37:07.404Z,85.02
2018-11-29T07:41:14.844Z,85.41
2018-11-29T07:45:23.539Z,85.04
2018-11-29T07:49:33.792Z,84.96
2018-11-29T07:53:41.218Z,84.66
2018-11-29T07:57:50.331Z,84.60
2018-11-29T08:01:57.826Z,84.68
2018-11-29T08:06:05.403Z,84.66
2018-11-29T08:10:17.329Z,84.28
2018-11-29T08:14:24.904Z,84.06
2018-11-29T08:18:33.248Z,83.76
2018-11-29T08:22:40.829Z,83.63
2018-11-29T08:26:48.241Z,83.42
2018-11-29T08:30:55.643Z,82.95
2018-11-29T08:35:03.541Z,82.89
2018-11-29T08:39:14.434Z,82.59
2018-11-29T08:43:23.307Z,82.68
2018-11-29T08:47:33.556Z,82.38
2018-11-29T08:51:41.457Z,82.51
2018-11-29T08:55:49.067Z,82.28
2018-11-29T08:59:56.955Z,82.58
2018-11-29T09:04:04.507Z,82.00
2018-11-29T09:08:12.196Z,81.92
2018-11-29T09:12:19.787Z,82.00
2018-11-29T09:16:27.601Z,81.92
2018-11-29T09:20:38.668Z,81.56
2018-11-29T09:24:46.242Z,80.91
2018-11-29T09:28:53.950Z,80.14
2018-11-29T09:33:01.477Z,79.96
2018-11-29T09:37:09.374Z,79.17
2018-11-29T09:41:17.225Z,79.10
2018-11-29T09:45:26.143Z,78.81
2018-11-29T09:49:33.858Z,77.31
2018-11-29T09:53:43.339Z,76.63
2018-11-29T09:57:51.698Z,75.93
2018-11-29T10:01:59.439Z,75.27
2018-11-29T10:06:07.091Z,75.35
2018-11-29T10:10:15.104Z,74.30
2018-11-29T10:14:22.750Z,74.08
2018-11-29T10:18:31.117Z,73.32
2018-11-29T10:22:40.521Z,73.80
2018-11-29T10:26:48.347Z,73.57
2018-11-29T10:31:03.849Z,74.56
2018-11-29T10:35:12.658Z,73.95
2018-11-29T10:39:20.731Z,74.46
2018-11-29T10:43:28.342Z,74.84
2018-11-29T10:47:36.863Z,74.44
2018-11-29T10:51:44.393Z,74.56
2018-11-29T10:55:52.093Z,75.37
2018-11-29T11:00:00.010Z,75.25
2018-11-29T11:04:08.088Z,74.91
2018-11-29T11:08:16.068Z,75.15
2018-11-29T11:12:23.768Z,75.19
2018-11-29T11:16:31.344Z,75.18
2018-11-29T11:20:39.231Z,75.25
2018-11-29T11:24:46.871Z,75.16
2018-11-29T11:28:54.607Z,74.70
2018-11-29T11:33:02.587Z,75.10
2018-11-29T11:37:10.353Z,75.13
2018-11-29T11:41:18.118Z,74.51
2018-11-29T11:45:26.030Z,74.45
2018-11-29T11:49:34.117Z,75.41
2018-11-29T11:53:41.982Z,74.71
2018-11-29T11:57:50.570Z,74.98
2018-11-29T12:01:58.527Z,75.08
2018-11-29T12:06:06.178Z,74.99
2018-11-29T12:10:15.758Z,74.95
2018-11-29T12:14:26.879Z,74.78
2018-11-29T12:18:35.554Z,74.71
2018-11-29T12:22:43.365Z,74.60
2018-11-29T12:26:51.494Z,74.43
2018-11-29T12:31:06.750Z,74.50
2018-11-29T12:35:14.424Z,74.31
2018-11-29T12:39:26.734Z,74.14
2018-11-29T12:43:37.321Z,73.89
2018-11-29T12:47:47.465Z,73.86
2018-11-29T12:51:55.872Z,74.09
2018-11-29T12:56:06.521Z,73.99
2018-11-29T13:00:19.392Z,74.29
2018-11-29T13:04:27.389Z,73.76
2018-11-29T13:08:35.193Z,73.46
2018-11-29T13:12:43.137Z,73.79
2018-11-29T13:16:54.311Z,74.16
2018-11-29T13:21:07.928Z,73.97
2018-11-29T13:25:20.383Z,74.27
2018-11-29T13:29:28.655Z,74.13
2018-11-29T13:33:41.866Z,73.65
2018-11-29T13:38:18.185Z,73.77
2018-11-29T13:42:26.097Z,74.00
2018-11-29T13:46:34.248Z,74.86
2018-11-29T13:50:42.340Z,75.02
2018-11-29T13:54:50.910Z,74.42
2018-11-29T13:58:58.370Z,74.38
2018-11-29T14:03:15.639Z,74.45
2018-11-29T14:07:27.090Z,74.79
2018-11-29T14:11:38.024Z,74.25
2018-11-29T14:15:45.726Z,74.24
2018-11-29T14:19:53.854Z,74.08
2018-11-29T14:24:02.704Z,74.43
2018-11-29T14:28:11.457Z,74.34
2018-11-29T14:32:19.009Z,74.75
2018-11-29T14:36:28.467Z,75.26
2018-11-29T14:40:38.812Z,75.39
2018-11-29T14:44:47.289Z,75.94
2018-11-29T14:48:56.074Z,76.52
2018-11-29T14:53:03.669Z,76.43
2018-11-29T14:57:20.736Z,76.19
2018-11-29T15:01:29.044Z,75.27
2018-11-29T15:05:38.465Z,75.00
2018-11-29T15:09:46.368Z,74.96
2018-11-29T15:13:54.119Z,73.89
2018-11-29T15:18:01.953Z,73.20
2018-11-29T15:22:10.925Z,72.61
2018-11-29T15:26:19.608Z,71.79
2018-11-29T15:30:27.812Z,71.49
2018-11-29T15:34:36.824Z,70.86
2018-11-29T15:38:45.099Z,70.82
2018-11-29T15:42:54.051Z,70.21
2018-11-29T15:47:01.537Z,69.97
2018-11-29T15:51:10.583Z,71.94
2018-11-29T15:55:30.128Z,71.49
2018-11-29T15:59:41.159Z,71.35
2018-11-29T16:03:52.515Z,71.66
2018-11-29T16:08:01.246Z,71.20
2018-11-29T16:12:12.446Z,70.87
2018-11-29T16:16:19.988Z,70.97
2018-11-29T16:20:32.876Z,71.19
2018-11-29T16:24:44.415Z,71.55
2018-11-29T16:28:56.229Z,71.39
2018-11-29T16:33:35.317Z,71.15
2018-11-29T16:37:43.993Z,71.06
2018-11-29T16:41:55.584Z,71.54
2018-11-29T16:46:03.852Z,71.37
2018-11-29T16:50:17.263Z,71.56
2018-11-29T16:54:25.123Z,71.16
2018-11-29T16:58:33.482Z,70.66
2018-11-29T17:02:41.033Z,69.98
2018-11-29T17:10:56.734Z,69.90
2018-11-29T17:15:04.346Z,69.66
2018-11-29T17:19:11.936Z,69.24
2018-11-29T17:23:25.995Z,69.15
2018-11-29T17:27:33.832Z,69.02
2018-11-29T17:31:43.943Z,68.89
2018-11-29T17:35:51.735Z,68.61
2018-11-29T17:40:04.071Z,68.65
2018-11-29T17:44:12.019Z,68.38
2018-11-29T17:48:19.940Z,68.72
2018-11-29T17:52:28.085Z,67.98
2018-11-29T17:56:35.812Z,68.19
2018-11-29T18:00:50.590Z,67.25
2018-11-29T18:04:59.185Z,66.58
2018-11-29T18:09:12.197Z,66.38
2018-11-29T18:13:32.010Z,69.57
2018-11-29T18:17:44.773Z,66.27
2018-11-29T18:21:59.760Z,66.16
2018-11-29T18:26:08.264Z,66.19
2018-11-29T18:30:21.125Z,65.59
2018-11-29T18:34:29.277Z,65.44
2018-11-29T18:38:37.115Z,65.86
2018-11-29T18:42:49.140Z,65.48
2018-11-29T18:47:02.296Z,65.57
2018-11-29T18:51:10.561Z,65.51
2018-11-29T18:55:18.730Z,65.94
2018-11-29T18:59:26.649Z,65.94
2018-11-29T19:03:34.651Z,66.30
2018-11-29T19:07:42.914Z,66.62
2018-11-29T19:11:51.282Z,66.77
2018-11-29T19:15:59.008Z,66.74
2018-11-29T19:20:09.269Z,66.62
2018-11-29T19:24:26.049Z,67.04
2018-11-29T19:28:37.186Z,67.07
2018-11-29T19:32:45.303Z,67.14
2018-11-29T19:37:00.998Z,67.34
2018-11-29T19:41:11.841Z,67.40
2018-11-29T19:45:19.951Z,67.42
2018-11-29T19:49:27.733Z,67.43
2018-11-29T19:53:35.999Z,67.72
2018-11-29T19:57:43.933Z,67.80
2018-11-29T20:01:58.755Z,67.69
2018-11-29T20:06:07.218Z,67.53
2018-11-29T20:10:27.086Z,67.73
2018-11-29T20:14:34.078Z,67.72
2018-11-29T20:18:43.405Z,67.86
2018-11-29T20:22:51.448Z,68.37
2018-11-29T20:26:59.139Z,68.54
2018-11-29T20:31:07.623Z,68.19
2018-11-29T20:35:20.226Z,68.64
2018-11-29T20:39:28.221Z,68.79
2018-11-29T20:43:36.136Z,68.85
2018-11-29T20:47:44.364Z,69.31
2018-11-29T20:51:52.005Z,69.20
2018-11-29T20:55:59.561Z,69.18
2018-11-29T21:00:12.020Z,69.32
2018-11-29T21:04:20.116Z,69.45
2018-11-29T21:08:28.001Z,69.27
2018-11-29T21:12:36.540Z,69.35
2018-11-29T21:16:45.803Z,69.17
2018-11-29T21:20:53.257Z,69.30
2018-11-29T21:25:00.715Z,69.46
2018-11-29T21:29:09.355Z,69.21
2018-11-29T21:33:17.491Z,69.70
2018-11-29T21:37:29.784Z,69.26
2018-11-29T21:41:38.651Z,69.45
2018-11-29T21:45:48.639Z,69.85
2018-11-29T21:49:56.665Z,69.72
2018-11-29T21:54:08.239Z,70.01
2018-11-29T21:58:22.291Z,70.14
2018-11-29T22:02:35.783Z,70.53
2018-11-29T22:06:46.061Z,70.78
2018-11-29T22:11:03.870Z,70.67
2018-11-29T22:15:13.929Z,70.54
2018-11-29T22:19:24.339Z,70.82
2018-11-29T22:23:38.718Z,71.01
2018-11-29T22:27:49.440Z,70.57
2018-11-29T22:31:57.956Z,70.70
2018-11-29T22:36:07.927Z,70.78
2018-11-29T22:40:24.321Z,71.07
2018-11-29T22:44:34.003Z,71.12
2018-11-29T22:48:53.191Z,71.01
2018-11-29T22:53:04.380Z,71.05
2018-11-29T22:57:11.781Z,71.56
2018-11-29T23:01:28.804Z,71.59
2018-11-29T23:05:36.475Z,71.46
2018-11-29T23:09:43.936Z,71.93
2018-11-29T23:13:51.403Z,71.63
2018-11-29T23:17:59.219Z,71.44
2018-11-29T23:22:06.946Z,71.48
2018-11-29T23:26:14.578Z,71.71
2018-11-29T23:30:22.378Z,72.04
2018-11-29T23:34:29.844Z,71.76
2018-11-29T23:38:38.343Z,72.36
2018-11-29T23:42:46.207Z,72.59
2018-11-29T23:46:53.744Z,72.25
2018-11-29T23:51:01.260Z,72.02
2018-11-29T23:55:11.318Z,73.35
2018-11-29T23:59:19.018Z,73.34
